Time;durP1;ratioP1;P1;durP2;ratioP2;P2;SDS_P1;SDS_P2;PMS_P1;PMS_P2;Temp;Humidity;BMP_temperature;BMP_pressure;BME280_temperature;BME280_humidity;BME280_pressure;Samples;Min_cycle;Max_cycle;Signal;HPM_P1;HPM_P2
2022/06/16 00:00:06;;;;;;;9.43;6.32;;;14.00;99.90;;;;;;4970363;28;20035;-65
2022/06/16 00:02:32;;;;;;;10.30;6.57;;;14.00;99.90;;;;;;4967441;28;20049;-66
2022/06/16 00:04:57;;;;;;;9.90;7.05;;;13.90;99.90;;;;;;4973416;28;20129;-64
2022/06/16 00:07:23;;;;;;;11.00;6.40;;;13.80;99.90;;;;;;4971124;28;20046;-65
2022/06/16 00:09:49;;;;;;;9.15;6.32;;;13.80;99.90;;;;;;4967250;28;20062;-65
2022/06/16 00:12:15;;;;;;;10.15;6.50;;;13.80;99.90;;;;;;4974345;28;20082;-65
2022/06/16 00:14:41;;;;;;;9.40;6.50;;;13.70;99.90;;;;;;4961925;28;20039;-66
2022/06/16 00:17:07;;;;;;;8.77;6.32;;;13.70;99.90;;;;;;4962240;28;20038;-65
2022/06/16 00:19:33;;;;;;;12.95;6.85;;;13.60;99.90;;;;;;4974131;28;20495;-65
2022/06/16 00:21:59;;;;;;;10.18;6.53;;;13.60;99.90;;;;;;4974077;28;20104;-66
2022/06/16 00:24:27;;;;;;;14.93;7.40;;;13.60;99.90;;;;;;4959627;28;20093;-65
2022/06/16 00:26:54;;;;;;;15.05;7.10;;;13.60;99.90;;;;;;4972633;28;20454;-65
2022/06/16 00:29:20;;;;;;;9.48;6.50;;;13.60;99.90;;;;;;4974023;28;20038;-65
2022/06/16 00:31:45;;;;;;;10.80;7.38;;;13.70;99.90;;;;;;4964252;28;20165;-65
2022/06/16 00:34:11;;;;;;;11.73;7.97;;;13.70;99.90;;;;;;4968797;28;20054;-65
2022/06/16 00:36:37;;;;;;;10.60;7.43;;;13.70;99.90;;;;;;4973655;28;20515;-64
2022/06/16 00:39:03;;;;;;;12.07;8.27;;;13.70;99.90;;;;;;4949058;28;20800;-65
2022/06/16 00:41:29;;;;;;;9.35;6.65;;;13.60;99.90;;;;;;4962289;28;20043;-65
2022/06/16 00:44:00;;;;;;;10.93;6.63;;;13.50;99.90;;;;;;4973119;28;20042;-65
2022/06/16 00:46:28;;;;;;;10.32;6.65;;;13.50;99.90;;;;;;4974140;28;20035;-65
2022/06/16 00:49:00;;;;;;;9.25;6.97;;;13.50;99.90;;;;;;4970366;28;20043;-64
2022/06/16 00:51:29;;;;;;;12.93;7.13;;;13.50;99.90;;;;;;4971653;28;20503;-65
2022/06/16 00:54:00;;;;;;;12.43;6.85;;;13.40;99.90;;;;;;4973836;28;20114;-65
2022/06/16 00:56:25;;;;;;;9.90;6.85;;;13.40;99.90;;;;;;4963069;28;20043;-65
2022/06/16 00:58:56;;;;;;;9.18;6.85;;;13.40;99.90;;;;;;4966117;28;20038;-64
2022/06/16 01:01:22;;;;;;;10.90;6.82;;;13.50;99.90;;;;;;4973148;28;20042;-64
2022/06/16 01:06:34;;;;;;;13.73;7.50;;;13.20;99.90;;;;;;4967700;28;20051;-64
2022/06/16 01:09:08;;;;;;;11.60;6.60;;;13.10;99.90;;;;;;4966571;28;20050;-64
2022/06/16 01:15:14;;;;;;;11.65;6.25;;;13.00;99.90;;;;;;4933626;28;20141;-65
2022/06/16 01:17:58;;;;;;;11.98;6.30;;;12.90;99.90;;;;;;4973021;28;20380;-64
2022/06/16 01:20:55;;;;;;;9.18;6.25;;;12.90;99.90;;;;;;4969909;28;20046;-65
2022/06/16 01:23:32;;;;;;;10.68;6.15;;;12.90;99.90;;;;;;4960988;28;20043;-64
2022/06/16 01:26:07;;;;;;;10.30;6.45;;;12.90;99.90;;;;;;4972752;28;20043;-64
2022/06/16 01:28:53;;;;;;;9.00;6.53;;;12.90;99.90;;;;;;4973407;28;20045;-65
2022/06/16 01:31:33;;;;;;;13.25;6.55;;;12.90;99.90;;;;;;4967255;28;20403;-64
2022/06/16 01:34:20;;;;;;;10.65;6.25;;;12.80;99.90;;;;;;4966116;28;20046;-65
2022/06/16 01:37:24;;;;;;;9.50;6.50;;;12.80;99.90;;;;;;4972760;28;20492;-65
2022/06/16 01:40:01;;;;;;;11.60;6.57;;;12.70;99.90;;;;;;4962812;28;20047;-65
2022/06/16 01:42:44;;;;;;;11.50;6.50;;;12.60;99.90;;;;;;4964711;28;20399;-64
2022/06/16 01:45:17;;;;;;;8.48;6.30;;;12.60;99.90;;;;;;4973020;28;20126;-65
2022/06/16 01:47:48;;;;;;;8.60;6.05;;;12.50;99.90;;;;;;4954584;28;20049;-64
2022/06/16 01:50:21;;;;;;;9.75;6.40;;;12.60;99.90;;;;;;4968143;28;20039;-65
2022/06/16 01:53:09;;;;;;;9.57;5.85;;;12.60;99.90;;;;;;4953650;29;20051;-64
2022/06/16 01:55:41;;;;;;;12.10;6.53;;;12.60;99.90;;;;;;4953358;28;20046;-64
2022/06/16 01:58:10;;;;;;;;;;;12.60;99.90;;;;;;4971541;28;20039;-65
2022/06/16 02:00:35;;;;;;;10.23;6.20;;;12.50;99.90;;;;;;4972157;28;19918;-65
2022/06/16 02:03:06;;;;;;;10.18;6.55;;;12.40;99.90;;;;;;4967370;28;20031;-64
2022/06/16 02:05:47;;;;;;;12.25;6.93;;;12.40;99.90;;;;;;4971613;28;20031;-65
2022/06/16 02:08:17;;;;;;;9.63;5.93;;;12.40;99.90;;;;;;4972463;28;20081;-65
2022/06/16 02:10:54;;;;;;;9.55;6.32;;;12.30;99.90;;;;;;4972553;28;20298;-64
2022/06/16 02:13:25;;;;;;;11.48;6.07;;;12.00;99.90;;;;;;4958515;28;20047;-64
2022/06/16 02:15:53;;;;;;;9.82;6.10;;;11.90;99.90;;;;;;4964509;28;20050;-64
2022/06/16 02:18:24;;;;;;;9.77;6.68;;;11.90;99.90;;;;;;4955125;28;20492;-64
2022/06/16 02:21:07;;;;;;;14.23;6.43;;;11.90;99.90;;;;;;4943277;28;20074;-65
2022/06/16 02:23:33;;;;;;;10.63;6.47;;;11.90;99.90;;;;;;4969985;28;20039;-65
2022/06/16 02:26:00;;;;;;;9.52;6.43;;;11.90;99.90;;;;;;4972062;28;20065;-65
2022/06/16 02:28:27;;;;;;;10.80;6.43;;;12.00;99.90;;;;;;4972375;28;20117;-65
2022/06/16 02:31:34;;;;;;;12.35;6.90;;;12.00;99.90;;;;;;4961987;28;20039;-65
2022/06/16 02:34:25;;;;;;;10.30;6.53;;;12.10;99.90;;;;;;4955344;28;20181;-65
2022/06/16 02:37:07;;;;;;;10.13;6.25;;;12.10;99.90;;;;;;4959713;28;20046;-65
2022/06/16 02:39:35;;;;;;;;;;;12.10;99.90;;;;;;4964139;28;20043;-65
2022/06/16 02:42:11;;;;;;;10.20;6.18;;;12.00;99.90;;;;;;4971950;28;20008;-65
2022/06/16 02:44:43;;;;;;;11.82;6.97;;;12.00;99.90;;;;;;4968442;28;20043;-65
2022/06/16 02:47:44;;;;;;;10.38;6.03;;;12.00;99.90;;;;;;4969117;28;20078;-65
2022/06/16 02:50:17;;;;;;;8.38;5.95;;;12.10;99.90;;;;;;4970936;28;20141;-65
2022/06/16 02:52:51;;;;;;;13.18;6.18;;;12.00;99.90;;;;;;4969755;28;20047;-65
2022/06/16 02:55:31;;;;;;;10.57;6.22;;;12.00;99.90;;;;;;4970950;28;20047;-65
2022/06/16 02:58:00;;;;;;;11.27;6.55;;;12.00;99.90;;;;;;4951822;28;20094;-65
2022/06/16 03:00:34;;;;;;;9.55;6.05;;;12.00;99.90;;;;;;4953160;28;20121;-65
2022/06/16 03:03:15;;;;;;;10.88;6.15;;;12.00;99.90;;;;;;4966359;28;20039;-65
2022/06/16 03:05:41;;;;;;;;;;;12.00;99.90;;;;;;4975544;28;20132;-65
2022/06/16 03:08:07;;;;;;;10.40;6.30;;;11.90;99.90;;;;;;4958418;28;19965;-65
2022/06/16 03:10:51;;;;;;;11.95;5.90;;;11.90;99.90;;;;;;4966737;28;20075;-65
2022/06/16 03:13:21;;;;;;;11.10;6.95;;;11.90;99.90;;;;;;4975236;28;20053;-65
2022/06/16 03:15:48;;;;;;;12.00;6.53;;;12.00;99.90;;;;;;4975624;28;20146;-65
2022/06/16 03:18:14;;;;;;;10.40;6.68;;;12.00;99.90;;;;;;4975556;28;20475;-65
2022/06/16 03:20:40;;;;;;;12.02;6.70;;;12.10;99.90;;;;;;4953598;28;20038;-65
2022/06/16 03:23:05;;;;;;;9.50;6.68;;;12.10;99.90;;;;;;4969898;28;20059;-65
2022/06/16 03:25:32;;;;;;;11.77;6.65;;;12.10;99.90;;;;;;4972765;28;20523;-65
2022/06/16 03:27:58;;;;;;;11.25;6.75;;;12.20;99.90;;;;;;4957784;28;20035;-65
2022/06/16 03:30:24;;;;;;;9.90;6.90;;;12.20;99.90;;;;;;4971761;28;20066;-64
2022/06/16 03:32:50;;;;;;;10.80;7.20;;;12.10;99.90;;;;;;4975181;28;20484;-65
2022/06/16 03:35:16;;;;;;;14.80;7.68;;;12.10;99.90;;;;;;4961696;28;20253;-64
2022/06/16 03:37:42;;;;;;;12.63;8.07;;;12.10;99.90;;;;;;4973054;28;20462;-64
2022/06/16 03:40:11;;;;;;;10.93;6.82;;;12.00;99.90;;;;;;4974338;28;20035;-64
2022/06/16 03:42:37;;;;;;;11.20;6.97;;;11.90;99.90;;;;;;4969499;28;20170;-65
2022/06/16 03:45:03;;;;;;;12.45;7.28;;;11.90;99.90;;;;;;4960287;28;20490;-65
2022/06/16 03:47:29;;;;;;;8.95;6.47;;;12.00;99.90;;;;;;4961198;28;20070;-65
2022/06/16 03:49:54;;;;;;;9.85;6.80;;;12.00;99.90;;;;;;4967428;28;20107;-65
2022/06/16 03:52:20;;;;;;;11.82;7.28;;;11.90;99.90;;;;;;4973462;28;20051;-65
2022/06/16 03:54:46;;;;;;;11.65;7.03;;;11.90;99.90;;;;;;4974827;28;20057;-65
2022/06/16 03:57:12;;;;;;;10.95;6.72;;;11.80;99.90;;;;;;4960859;28;20114;-65
2022/06/16 03:59:38;;;;;;;8.80;6.40;;;11.70;99.90;;;;;;4960465;28;20046;-65
2022/06/16 04:02:04;;;;;;;8.75;6.55;;;11.70;99.90;;;;;;4962226;28;20046;-64
2022/06/16 04:04:29;;;;;;;12.35;7.35;;;11.60;99.90;;;;;;4973431;28;20534;-64
2022/06/16 04:06:55;;;;;;;12.05;7.95;;;11.60;99.90;;;;;;4967465;28;20073;-64
2022/06/16 04:09:21;;;;;;;12.73;7.80;;;11.70;99.90;;;;;;4972755;28;20478;-64
2022/06/16 04:11:47;;;;;;;11.63;7.40;;;11.80;99.90;;;;;;4972577;28;20442;-64
2022/06/16 04:14:14;;;;;;;12.45;7.22;;;11.90;99.90;;;;;;4972612;28;20440;-64
2022/06/16 04:16:46;;;;;;;13.93;7.20;;;12.00;99.90;;;;;;4962647;28;20038;-64
2022/06/16 04:19:14;;;;;;;10.32;6.35;;;12.10;99.90;;;;;;4961941;28;20046;-64
2022/06/16 04:21:42;;;;;;;11.82;7.03;;;12.20;99.90;;;;;;4972228;28;20046;-64
2022/06/16 04:24:08;;;;;;;13.98;7.90;;;12.20;99.90;;;;;;4969984;28;20051;-64
2022/06/16 04:26:37;;;;;;;12.10;7.25;;;12.40;99.90;;;;;;4972958;28;20064;-64
2022/06/16 04:29:03;;;;;;;10.32;7.43;;;12.40;99.90;;;;;;4974101;28;20050;-65
2022/06/16 04:31:30;;;;;;;13.07;7.43;;;12.60;99.90;;;;;;4974025;28;20035;-64
2022/06/16 04:33:56;;;;;;;14.07;7.88;;;12.70;99.90;;;;;;4963808;28;20049;-64
2022/06/16 04:36:22;;;;;;;10.32;7.28;;;12.80;99.90;;;;;;4972454;28;20121;-64
2022/06/16 04:38:48;;;;;;;12.90;7.60;;;13.00;99.90;;;;;;4974001;28;20655;-64
2022/06/16 04:41:15;;;;;;;12.63;7.93;;;13.10;99.90;;;;;;4968072;28;20047;-64
2022/06/16 04:43:41;;;;;;;13.23;7.50;;;13.30;99.90;;;;;;4972231;28;20049;-65
2022/06/16 04:46:08;;;;;;;10.43;7.47;;;13.40;99.90;;;;;;4973954;28;20122;-65
2022/06/16 04:48:35;;;;;;;14.98;7.53;;;13.50;99.90;;;;;;4974004;28;20055;-65
2022/06/16 04:51:03;;;;;;;10.18;6.90;;;13.60;99.90;;;;;;4965852;28;20039;-65
2022/06/16 04:53:29;;;;;;;10.55;7.15;;;13.70;99.90;;;;;;4973271;28;20065;-65
2022/06/16 04:55:57;;;;;;;10.93;6.80;;;13.80;99.90;;;;;;4972936;28;20038;-64
2022/06/16 04:58:24;;;;;;;11.32;7.25;;;13.90;99.90;;;;;;4962721;28;20070;-65
2022/06/16 05:00:51;;;;;;;10.30;6.95;;;14.10;99.90;;;;;;4963165;28;20388;-64
2022/06/16 05:03:19;;;;;;;12.75;7.00;;;14.20;99.90;;;;;;4961722;28;20480;-65
2022/06/16 05:05:49;;;;;;;11.77;6.93;;;14.30;99.90;;;;;;4958864;28;20039;-64
2022/06/16 05:08:16;;;;;;;11.77;7.05;;;14.30;99.90;;;;;;4965391;28;20116;-64
2022/06/16 05:10:42;;;;;;;11.63;6.35;;;14.30;99.90;;;;;;4958865;28;20038;-64
2022/06/16 05:13:08;;;;;;;12.25;6.80;;;14.40;99.90;;;;;;4964523;28;20118;-64
2022/06/16 05:15:35;;;;;;;12.38;6.95;;;14.40;99.90;;;;;;4933810;28;20047;-64
2022/06/16 05:18:02;;;;;;;10.25;5.57;;;14.50;99.90;;;;;;4944768;28;20524;-64
2022/06/16 05:20:28;;;;;;;10.80;6.25;;;14.50;99.90;;;;;;4959218;28;20035;-64
2022/06/16 05:22:53;;;;;;;8.38;6.05;;;14.60;99.90;;;;;;4960245;28;20054;-64
2022/06/16 05:25:19;;;;;;;10.80;6.10;;;14.60;99.90;;;;;;4958825;28;20137;-64
2022/06/16 05:27:45;;;;;;;10.23;6.18;;;14.60;99.90;;;;;;4960688;28;20258;-64
2022/06/16 05:30:11;;;;;;;9.80;6.35;;;14.70;99.90;;;;;;4953049;28;20571;-64
2022/06/16 05:32:37;;;;;;;14.65;6.13;;;14.70;99.90;;;;;;4966281;28;20570;-64
2022/06/16 05:35:03;;;;;;;9.23;5.50;;;14.80;99.90;;;;;;4972517;28;20078;-64
2022/06/16 05:37:31;;;;;;;8.52;5.80;;;14.80;99.90;;;;;;4955442;28;20113;-64
2022/06/16 05:39:56;;;;;;;9.73;6.07;;;14.80;99.90;;;;;;4965218;28;20043;-64
2022/06/16 05:42:22;;;;;;;8.95;5.47;;;14.80;99.90;;;;;;4965868;28;20057;-64
2022/06/16 05:44:48;;;;;;;10.82;5.47;;;14.90;99.90;;;;;;4972635;28;20074;-64
2022/06/16 05:47:13;;;;;;;15.52;4.75;;;14.90;99.90;;;;;;4955665;28;20049;-64
2022/06/16 05:49:40;;;;;;;12.55;5.00;;;14.90;99.90;;;;;;4961493;28;20067;-64
2022/06/16 05:52:11;;;;;;;7.82;4.60;;;14.90;99.90;;;;;;4926880;28;20411;-64
2022/06/16 05:54:37;;;;;;;10.75;4.82;;;14.90;99.90;;;;;;4966876;28;20051;-65
2022/06/16 05:57:03;;;;;;;9.27;4.80;;;14.80;99.90;;;;;;4965103;28;20038;-65
2022/06/16 05:59:30;;;;;;;9.35;4.90;;;14.80;99.90;;;;;;4966019;28;20038;-65
2022/06/16 06:01:55;;;;;;;8.82;4.85;;;14.70;99.90;;;;;;4954973;28;20050;-65
2022/06/16 06:04:22;;;;;;;7.68;4.60;;;14.70;99.90;;;;;;4923582;28;20042;-65
2022/06/16 06:06:48;;;;;;;6.88;5.03;;;14.80;99.90;;;;;;4948789;28;20454;-65
2022/06/16 06:17:27;;;;;;;7.05;4.20;;;15.10;99.90;;;;;;4971990;28;20575;-64
2022/06/16 06:19:53;;;;;;;7.40;4.00;;;15.20;99.90;;;;;;4972438;28;20050;-65
2022/06/16 06:22:23;;;;;;;6.85;3.83;;;15.30;99.90;;;;;;4965083;28;20043;-64
2022/06/16 06:24:58;;;;;;;8.80;3.78;;;15.30;99.90;;;;;;4970300;28;20064;-65
2022/06/16 06:27:43;;;;;;;5.70;3.70;;;15.30;99.90;;;;;;4958343;28;20042;-65
2022/06/16 06:30:18;;;;;;;6.38;3.40;;;15.40;99.90;;;;;;4966583;28;20045;-64
2022/06/16 06:32:44;;;;;;;6.15;3.42;;;15.40;99.90;;;;;;4971974;28;20053;-64
2022/06/16 06:35:11;;;;;;;6.40;3.75;;;15.50;99.90;;;;;;4979570;28;20039;-64
2022/06/16 06:37:37;;;;;;;6.40;3.70;;;15.50;99.90;;;;;;4976360;28;20050;-64
2022/06/16 06:40:04;;;;;;;7.45;3.67;;;15.60;99.90;;;;;;4971307;28;20069;-64
2022/06/16 06:42:29;;;;;;;6.45;3.63;;;15.60;99.90;;;;;;4970486;28;20083;-64
2022/06/16 06:44:55;;;;;;;5.53;3.13;;;15.70;99.90;;;;;;4957536;28;20066;-64
2022/06/16 06:47:24;;;;;;;7.60;3.30;;;15.70;99.90;;;;;;4941941;28;20110;-65
2022/06/16 06:49:50;;;;;;;7.93;3.50;;;15.80;99.90;;;;;;4969382;28;20039;-65
2022/06/16 06:52:16;;;;;;;4.75;3.08;;;15.90;99.90;;;;;;4975648;28;20039;-64
2022/06/16 06:54:45;;;;;;;7.22;3.38;;;16.00;99.90;;;;;;4954415;28;20117;-64
2022/06/16 06:57:13;;;;;;;4.43;3.30;;;16.00;99.90;;;;;;4960495;28;20055;-64
2022/06/16 06:59:39;;;;;;;5.90;3.03;;;16.10;99.90;;;;;;4968114;28;20046;-65
2022/06/16 07:02:04;;;;;;;7.97;3.25;;;16.10;99.90;;;;;;4971399;28;23660;-64
2022/06/16 07:04:30;;;;;;;4.95;2.85;;;16.20;99.90;;;;;;4962794;28;20046;-64
2022/06/16 07:06:56;;;;;;;7.45;3.80;;;16.20;99.90;;;;;;4975504;28;20031;-64
2022/06/16 07:09:22;;;;;;;6.32;3.90;;;16.20;99.90;;;;;;4958129;28;20038;-64
2022/06/16 07:11:48;;;;;;;4.97;3.25;;;16.30;99.90;;;;;;4965045;28;20038;-64
2022/06/16 07:14:14;;;;;;;4.72;3.22;;;16.30;99.90;;;;;;4973595;28;20062;-64
2022/06/16 07:16:40;;;;;;;4.50;3.10;;;16.40;99.90;;;;;;4957753;28;20089;-64
2022/06/16 07:19:06;;;;;;;5.95;3.28;;;16.50;99.90;;;;;;4963441;28;20070;-64
2022/06/16 07:21:32;;;;;;;5.97;3.20;;;16.60;99.90;;;;;;4965023;28;20039;-64
2022/06/16 07:23:58;;;;;;;5.50;3.08;;;16.50;99.90;;;;;;4957378;28;20043;-64
2022/06/16 07:26:24;;;;;;;5.63;3.28;;;16.60;99.90;;;;;;4975736;28;20122;-64
2022/06/16 07:28:51;;;;;;;4.07;3.10;;;16.70;99.90;;;;;;4962750;28;20039;-64
2022/06/16 07:31:16;;;;;;;5.15;3.53;;;16.70;99.90;;;;;;4959996;28;20039;-65
2022/06/16 07:33:42;;;;;;;4.20;3.20;;;16.80;99.90;;;;;;4956167;28;20514;-64
2022/06/16 07:36:10;;;;;;;6.88;3.13;;;16.90;99.90;;;;;;4967581;28;20043;-67
2022/06/16 07:38:36;;;;;;;6.00;3.42;;;17.00;99.90;;;;;;4943360;28;20073;-66
2022/06/16 07:43:47;;;;;;;4.47;3.00;;;17.10;99.90;;;;;;4975294;28;20047;-66
2022/06/16 07:46:13;;;;;;;4.88;2.70;;;17.10;99.90;;;;;;4945145;28;20085;-66
2022/06/16 07:48:38;;;;;;;4.03;2.50;;;17.20;99.90;;;;;;4963187;28;20055;-66
2022/06/16 07:51:05;;;;;;;5.18;2.47;;;17.20;99.90;;;;;;4927240;29;20066;-66
2022/06/16 07:53:30;;;;;;;6.20;2.80;;;17.30;99.90;;;;;;4948992;28;20055;-66
2022/06/16 07:55:56;;;;;;;4.45;2.67;;;17.40;99.90;;;;;;4949210;28;20039;-66
2022/06/16 07:58:23;;;;;;;4.68;2.30;;;17.40;99.90;;;;;;4963448;28;20035;-66
2022/06/16 08:00:49;;;;;;;5.78;2.33;;;17.30;99.90;;;;;;4959142;28;20414;-66
2022/06/16 08:03:15;;;;;;;4.10;2.40;;;17.40;99.90;;;;;;4952051;28;20050;-66
2022/06/16 08:05:40;;;;;;;2.65;2.00;;;17.50;99.90;;;;;;4946248;28;20122;-66
2022/06/16 08:08:06;;;;;;;4.53;2.20;;;17.60;99.90;;;;;;4955959;28;20051;-67
2022/06/16 08:10:35;;;;;;;3.20;2.30;;;17.60;99.90;;;;;;4951706;28;20134;-67
2022/06/16 08:13:03;;;;;;;6.60;2.28;;;17.70;99.90;;;;;;4970715;28;20041;-65
2022/06/16 08:15:29;;;;;;;3.92;1.98;;;17.80;99.90;;;;;;4966747;28;20526;-65
2022/06/16 08:17:55;;;;;;;3.58;1.90;;;17.80;99.90;;;;;;4960219;28;20075;-66
2022/06/16 08:20:21;;;;;;;3.13;2.10;;;17.80;99.90;;;;;;4964706;28;20434;-66
2022/06/16 08:22:47;;;;;;;3.88;2.22;;;17.90;99.90;;;;;;4965166;28;20495;-66
2022/06/16 08:25:15;;;;;;;4.47;2.20;;;18.00;99.90;;;;;;4950763;28;20046;-67
2022/06/16 08:27:42;;;;;;;4.90;2.22;;;18.20;99.90;;;;;;4945021;28;20065;-67
2022/06/16 08:30:13;;;;;;;4.18;2.25;;;18.30;99.90;;;;;;4956321;28;20112;-67
2022/06/16 08:32:40;;;;;;;3.75;2.17;;;18.40;99.90;;;;;;4956476;28;20121;-66
2022/06/16 08:35:07;;;;;;;4.68;2.33;;;18.50;99.90;;;;;;4973658;28;20058;-67
2022/06/16 08:37:33;;;;;;;6.28;2.40;;;18.60;99.90;;;;;;4969159;28;20117;-65
2022/06/16 08:39:58;;;;;;;3.90;2.05;;;18.70;99.90;;;;;;4973517;28;20518;-65
2022/06/16 08:42:45;;;;;;;4.97;2.08;;;18.80;99.90;;;;;;4969806;28;20042;-66
2022/06/16 08:45:26;;;;;;;5.90;2.35;;;18.70;99.90;;;;;;4966779;28;20050;-66
2022/06/16 08:48:26;;;;;;;3.78;2.05;;;18.70;99.90;;;;;;4944936;28;20500;-66
2022/06/16 08:50:55;;;;;;;3.78;2.45;;;18.70;99.80;;;;;;4951702;28;20114;-66
2022/06/16 08:53:50;;;;;;;5.38;2.40;;;18.70;99.90;;;;;;4969274;28;20042;-65
2022/06/16 08:56:33;;;;;;;3.63;2.30;;;18.80;98.70;;;;;;4965916;28;20044;-66
2022/06/16 08:59:35;;;;;;;6.75;2.80;;;18.90;97.00;;;;;;4964595;28;20051;-65
2022/06/16 09:02:08;;;;;;;;;;;18.90;99.90;;;;;;4945701;28;20062;-66
2022/06/16 09:04:39;;;;;;;7.28;2.75;;;18.90;96.10;;;;;;4975385;28;19917;-67
2022/06/16 09:07:12;;;;;;;8.07;2.78;;;19.10;99.90;;;;;;4972456;28;20043;-65
2022/06/16 09:12:57;;;;;;;6.63;3.00;;;19.40;99.20;;;;;;4949339;28;20038;-64
2022/06/16 09:15:55;;;;;;;5.35;2.83;;;19.60;98.50;;;;;;4972354;28;20061;-64
2022/06/16 09:18:37;;;;;;;6.03;2.80;;;19.70;99.40;;;;;;4960258;28;20049;-64
2022/06/16 09:21:23;;;;;;;4.55;2.75;;;19.70;98.50;;;;;;4967632;28;20039;-64
2022/06/16 09:23:59;;;;;;;5.50;2.90;;;19.70;97.00;;;;;;4966107;28;20039;-65
2022/06/16 09:26:46;;;;;;;4.68;2.92;;;19.70;98.00;;;;;;4967054;28;20567;-65
2022/06/16 09:29:26;;;;;;;6.15;2.78;;;19.60;99.10;;;;;;4967756;28;20057;-65
2022/06/16 09:32:15;;;;;;;9.27;3.30;;;19.60;99.00;;;;;;4969563;28;20047;-65
2022/06/16 09:35:04;;;;;;;7.65;3.20;;;19.70;99.30;;;;;;4965501;28;20070;-65
2022/06/16 09:37:44;;;;;;;5.20;3.15;;;19.70;97.30;;;;;;4969789;28;20035;-64
2022/06/16 09:40:17;;;;;;;6.05;3.72;;;19.70;98.90;;;;;;4969636;28;20594;-64
2022/06/16 09:43:00;;;;;;;6.75;3.38;;;19.80;98.60;;;;;;4966788;28;20031;-65
2022/06/16 09:45:31;;;;;;;5.68;3.53;;;19.90;99.30;;;;;;4968176;28;20042;-65
2022/06/16 09:48:04;;;;;;;8.48;3.60;;;20.00;98.80;;;;;;4971729;28;20053;-66
2022/06/16 09:50:33;;;;;;;5.13;2.90;;;20.00;98.00;;;;;;4958114;28;20047;-63
2022/06/16 09:53:12;;;;;;;7.13;3.38;;;20.20;98.60;;;;;;4983991;28;20038;-65
2022/06/16 09:55:53;;;;;;;6.47;3.92;;;20.30;98.80;;;;;;4970243;28;20546;-64
2022/06/16 09:58:35;;;;;;;8.20;3.60;;;20.50;98.70;;;;;;4949314;28;20050;-66
2022/06/16 10:01:06;;;;;;;5.38;3.65;;;20.60;99.00;;;;;;4972310;28;20302;-67
2022/06/16 10:03:34;;;;;;;6.68;4.38;;;20.80;99.30;;;;;;4984687;28;20053;-66
2022/06/16 10:06:25;;;;;;;6.85;3.70;;;21.00;98.80;;;;;;4967166;28;20043;-68
2022/06/16 10:09:12;;;;;;;6.72;4.18;;;21.00;98.00;;;;;;4950584;28;20137;-66
2022/06/16 10:11:43;;;;;;;5.80;3.67;;;20.90;95.60;;;;;;4967080;28;20038;-66
2022/06/16 10:14:21;;;;;;;5.95;3.22;;;20.90;97.30;;;;;;4980927;28;20160;-66
2022/06/16 10:16:55;;;;;;;6.47;3.75;;;20.90;97.20;;;;;;4966847;28;20089;-66
2022/06/16 10:19:28;;;;;;;6.95;3.80;;;21.00;98.30;;;;;;4942942;28;20038;-67
2022/06/16 10:21:53;;;;;;;11.48;3.50;;;21.30;98.20;;;;;;4966675;28;20039;-67
2022/06/16 10:24:23;;;;;;;8.07;3.47;;;21.30;97.80;;;;;;4942715;28;20039;-66
2022/06/16 10:26:49;;;;;;;7.35;3.90;;;21.30;97.00;;;;;;4960013;28;20050;-66
2022/06/16 10:29:28;;;;;;;4.65;3.42;;;21.20;96.20;;;;;;4954304;28;20047;-67
2022/06/16 10:31:55;;;;;;;7.45;4.30;;;21.30;95.30;;;;;;4970794;28;20046;-66
2022/06/16 10:34:50;;;;;;;6.72;4.40;;;21.40;98.00;;;;;;4980063;28;20046;-67
2022/06/16 10:37:26;;;;;;;7.03;4.28;;;21.60;96.80;;;;;;4955220;28;20049;-66
2022/06/16 10:40:06;;;;;;;9.27;3.90;;;21.80;97.10;;;;;;4960980;28;20109;-66
2022/06/16 10:43:05;;;;;;;9.60;3.92;;;21.90;95.50;;;;;;4980632;28;20038;-66
2022/06/16 10:45:34;;;;;;;8.40;4.45;;;22.00;95.70;;;;;;4990537;28;20503;-66
2022/06/16 10:48:08;;;;;;;6.07;3.63;;;22.20;97.90;;;;;;4981835;28;20039;-67
2022/06/16 10:50:40;;;;;;;7.20;3.75;;;22.30;96.10;;;;;;4961786;28;20058;-66
2022/06/16 10:53:21;;;;;;;6.13;3.60;;;22.40;96.00;;;;;;4971433;28;20086;-66
2022/06/16 10:55:48;;;;;;;8.18;3.70;;;22.50;95.00;;;;;;4952915;28;20035;-69
2022/06/16 10:58:26;;;;;;;6.32;3.65;;;22.60;94.60;;;;;;4952933;28;20074;-68
2022/06/16 11:01:22;;;;;;;6.07;3.60;;;22.40;92.40;;;;;;4947047;28;20042;-68
2022/06/16 11:03:51;;;;;;;7.65;3.40;;;22.20;91.70;;;;;;4969077;28;20396;-70
2022/06/16 11:06:21;;;;;;;6.40;3.70;;;22.00;94.80;;;;;;4965897;28;20070;-68
2022/06/16 11:08:50;;;;;;;8.60;3.60;;;21.90;93.90;;;;;;4964429;28;20038;-67
2022/06/16 11:11:32;;;;;;;6.55;3.53;;;21.80;95.10;;;;;;4956968;28;20057;-67
2022/06/16 11:14:00;;;;;;;6.47;3.97;;;21.60;95.00;;;;;;4956812;28;20049;-67
2022/06/16 11:16:31;;;;;;;9.05;3.92;;;21.60;95.40;;;;;;4980326;28;20045;-71
2022/06/16 11:19:00;;;;;;;8.65;3.70;;;21.90;94.60;;;;;;4969378;28;20484;-66
2022/06/16 11:21:30;;;;;;;8.98;4.10;;;22.10;94.60;;;;;;4954078;28;20039;-66
2022/06/16 11:24:04;;;;;;;9.95;3.60;;;22.30;92.60;;;;;;4959526;28;20042;-67
2022/06/16 11:26:37;;;;;;;8.63;4.05;;;22.70;95.00;;;;;;4944084;28;20058;-67
2022/06/16 11:29:11;;;;;;;6.25;3.97;;;22.70;91.20;;;;;;4958451;28;20035;-67
2022/06/16 11:31:44;;;;;;;6.32;3.72;;;22.90;93.40;;;;;;4950010;28;20070;-69
2022/06/16 11:34:30;;;;;;;11.13;4.10;;;23.10;94.10;;;;;;4967727;28;20122;-67
2022/06/16 11:37:07;;;;;;;9.50;4.13;;;23.20;92.80;;;;;;4969335;28;20565;-67
2022/06/16 11:40:16;;;;;;;5.75;3.88;;;23.40;89.90;;;;;;4953874;28;20097;-67
2022/06/16 11:42:44;;;;;;;6.32;4.00;;;23.50;85.70;;;;;;4973025;28;20034;-67
2022/06/16 11:45:28;;;;;;;8.65;4.15;;;23.40;85.70;;;;;;4974186;28;20098;-67
2022/06/16 11:48:27;;;;;;;5.88;4.13;;;23.70;94.40;;;;;;4956831;28;20516;-67
2022/06/16 11:51:05;;;;;;;6.13;3.58;;;24.00;93.90;;;;;;4966739;28;20038;-67
2022/06/16 11:54:03;;;;;;;5.45;3.60;;;24.10;92.90;;;;;;4974111;28;20061;-67
2022/06/16 11:56:44;;;;;;;6.55;3.85;;;23.60;85.30;;;;;;4964930;28;20415;-67
2022/06/16 11:59:39;;;;;;;5.95;3.88;;;23.10;91.00;;;;;;4944699;28;20108;-66
2022/06/16 12:02:44;;;;;;;6.25;4.55;;;23.00;88.70;;;;;;4952773;28;20051;-66
2022/06/16 12:05:39;;;;;;;7.70;3.78;;;22.90;90.10;;;;;;4950144;28;20138;-66
2022/06/16 12:08:11;;;;;;;5.88;3.72;;;22.70;85.20;;;;;;4951144;28;20499;-68
2022/06/16 12:10:47;;;;;;;7.30;4.28;;;23.00;92.40;;;;;;4973689;28;20039;-66
2022/06/16 12:13:31;;;;;;;6.05;4.03;;;23.10;92.60;;;;;;4967109;28;20467;-69
2022/06/16 12:16:15;;;;;;;7.10;3.97;;;23.60;92.30;;;;;;4959428;28;20122;-67
2022/06/16 12:19:16;;;;;;;7.90;4.20;;;23.80;87.60;;;;;;4972329;28;20039;-66
2022/06/16 12:21:53;;;;;;;5.43;3.78;;;23.90;89.70;;;;;;4959624;28;20037;-67
2022/06/16 12:24:27;;;;;;;5.18;3.90;;;23.70;91.60;;;;;;4961208;28;20447;-66
2022/06/16 12:27:05;;;;;;;6.40;4.00;;;23.80;89.60;;;;;;4949007;28;20062;-66
2022/06/16 12:29:49;;;;;;;5.70;3.70;;;24.00;86.30;;;;;;4964544;28;20054;-67
2022/06/16 12:32:35;;;;;;;8.48;3.70;;;23.90;83.40;;;;;;4964883;28;20407;-67
2022/06/16 12:35:09;;;;;;;5.50;3.97;;;24.10;90.30;;;;;;4953566;28;20420;-66
2022/06/16 12:37:41;;;;;;;7.03;4.10;;;24.30;88.00;;;;;;4958656;28;20408;-66
2022/06/16 12:40:12;;;;;;;7.22;3.90;;;24.00;88.40;;;;;;4950795;28;20066;-66
2022/06/16 12:42:50;;;;;;;7.63;4.43;;;24.20;91.30;;;;;;4973435;28;20105;-66
2022/06/16 12:45:45;;;;;;;6.10;4.57;;;24.80;93.50;;;;;;4992580;28;20042;-66
2022/06/16 12:48:26;;;;;;;8.02;4.15;;;25.20;87.10;;;;;;4985816;28;20050;-66
2022/06/16 12:50:56;;;;;;;4.90;3.70;;;25.00;76.30;;;;;;4967775;28;20031;-66
2022/06/16 12:53:40;;;;;;;6.65;4.05;;;24.80;84.90;;;;;;4957149;28;20093;-66
2022/06/16 12:56:12;;;;;;;7.05;3.72;;;25.00;83.40;;;;;;4953824;28;20043;-66
2022/06/16 12:58:51;;;;;;;7.07;4.22;;;25.30;92.10;;;;;;4972532;28;20046;-68
2022/06/16 13:01:18;;;;;;;9.32;4.55;;;25.30;77.20;;;;;;4972034;28;20030;-67
2022/06/16 13:04:00;;;;;;;8.48;4.15;;;25.20;90.60;;;;;;4960410;28;20037;-67
2022/06/16 13:06:27;;;;;;;6.60;4.53;;;25.30;88.70;;;;;;4969819;28;20042;-67
2022/06/16 13:08:57;;;;;;;6.20;3.95;;;24.80;87.40;;;;;;4964425;28;20077;-67
2022/06/16 13:11:32;;;;;;;6.40;4.05;;;24.90;84.10;;;;;;4941764;28;20554;-66
2022/06/16 13:14:07;;;;;;;5.65;3.55;;;25.20;78.00;;;;;;4969619;28;20030;-67
2022/06/16 13:16:38;;;;;;;5.50;3.70;;;25.50;75.70;;;;;;4954624;28;20491;-66
2022/06/16 13:19:16;;;;;;;7.40;4.13;;;25.70;76.10;;;;;;4961033;28;20049;-68
2022/06/16 13:21:51;;;;;;;6.32;3.72;;;26.20;78.50;;;;;;4952091;28;20043;-67
2022/06/16 13:24:42;;;;;;;6.13;3.95;;;26.60;92.60;;;;;;4954807;28;20513;-69
2022/06/16 13:27:21;;;;;;;6.80;3.80;;;26.90;90.00;;;;;;4951479;28;20170;-66
2022/06/16 13:29:51;;;;;;;5.82;3.88;;;26.90;85.20;;;;;;4952477;28;20074;-69
2022/06/16 13:32:40;;;;;;;6.60;3.70;;;26.20;81.40;;;;;;4970916;28;20065;-69